createdAt,value
2017-12-04T00:02:00.876Z,10.80
2017-12-04T00:04:29.142Z,11.50
2017-12-04T00:06:57.409Z,10.15
2017-12-04T00:09:25.695Z,11.40
2017-12-04T00:11:53.959Z,10.75
2017-12-04T00:14:22.221Z,10.00
2017-12-04T00:16:50.497Z,7.53
2017-12-04T00:19:19.521Z,10.55
2017-12-04T00:21:47.795Z,10.20
2017-12-04T00:24:16.066Z,10.65
2017-12-04T00:26:44.326Z,9.52
2017-12-04T00:29:12.592Z,9.43
2017-12-04T00:31:40.867Z,9.23
2017-12-04T00:34:09.903Z,8.02
2017-12-04T00:36:38.167Z,9.27
2017-12-04T00:39:06.430Z,11.12
2017-12-04T00:41:34.698Z,10.00
2017-12-04T00:44:02.966Z,8.00
2017-12-04T00:46:32.003Z,10.52
2017-12-04T00:49:00.266Z,11.40
2017-12-04T00:51:28.538Z,12.07
2017-12-04T00:53:56.803Z,10.95
2017-12-04T00:56:25.078Z,10.73
2017-12-04T00:58:53.346Z,12.52
2017-12-04T01:01:21.619Z,9.30
2017-12-04T01:03:49.879Z,7.97
2017-12-04T01:06:18.902Z,7.93
2017-12-04T01:08:47.166Z,9.65
2017-12-04T01:11:15.432Z,11.43
2017-12-04T01:13:44.469Z,11.50
2017-12-04T01:16:12.742Z,11.95
2017-12-04T01:18:41.004Z,11.55
2017-12-04T01:21:09.267Z,12.40
2017-12-04T01:23:37.545Z,10.15
2017-12-04T01:26:05.808Z,12.32
2017-12-04T01:28:34.843Z,10.70
2017-12-04T01:31:03.103Z,12.02
2017-12-04T01:33:31.374Z,11.50
2017-12-04T01:35:59.644Z,11.50
2017-12-04T01:38:27.933Z,12.10
2017-12-04T01:40:56.197Z,11.65
2017-12-04T01:43:24.452Z,14.52
2017-12-04T01:45:53.485Z,11.30
2017-12-04T01:48:21.745Z,12.27
2017-12-04T01:50:50.017Z,11.35
2017-12-04T01:53:18.291Z,10.43
2017-12-04T01:55:46.560Z,14.02
2017-12-04T01:58:14.818Z,12.00
2017-12-04T02:00:43.862Z,13.35
2017-12-04T02:03:12.125Z,14.10
2017-12-04T02:05:40.394Z,14.52
2017-12-04T02:08:08.658Z,11.73
2017-12-04T02:10:36.935Z,11.85
2017-12-04T02:13:05.216Z,11.75
2017-12-04T02:15:33.486Z,12.93
2017-12-04T02:18:01.758Z,15.27
2017-12-04T02:20:30.047Z,13.50
2017-12-04T02:22:58.322Z,11.48
2017-12-04T02:25:26.587Z,15.20
2017-12-04T02:27:54.855Z,13.70
2017-12-04T02:30:26.040Z,9.55
2017-12-04T02:32:54.319Z,14.63
2017-12-04T02:35:22.584Z,8.18
2017-12-04T02:37:50.852Z,12.02
2017-12-04T02:40:19.108Z,14.65
2017-12-04T02:42:47.375Z,9.38
2017-12-04T02:45:16.400Z,12.60
2017-12-04T02:47:44.662Z,9.55
2017-12-04T02:50:12.924Z,12.88
2017-12-04T02:52:41.189Z,14.13
2017-12-04T02:55:10.219Z,9.70
2017-12-04T02:57:38.486Z,16.65
2017-12-04T03:00:06.760Z,13.35
2017-12-04T03:02:35.035Z,16.92
2017-12-04T03:05:03.290Z,17.62
2017-12-04T03:07:32.323Z,9.73
2017-12-04T03:10:00.604Z,16.80
2017-12-04T03:12:28.863Z,5.78
2017-12-04T03:14:57.135Z,12.90
2017-12-04T03:17:25.406Z,14.65
2017-12-04T03:19:53.675Z,8.57
2017-12-04T03:22:21.945Z,9.23
2017-12-04T03:24:50.198Z,9.88
2017-12-04T03:27:19.236Z,14.25
2017-12-04T03:29:47.498Z,14.50
2017-12-04T03:32:15.756Z,9.02
2017-12-04T03:34:44.779Z,7.82
2017-12-04T03:37:13.042Z,13.57
2017-12-04T03:39:41.298Z,12.07
2017-12-04T03:42:10.332Z,10.80
2017-12-04T03:44:38.616Z,14.07
2017-12-04T03:47:06.880Z,9.88
2017-12-04T03:49:35.137Z,14.80
2017-12-04T03:52:03.410Z,12.70
2017-12-04T03:54:31.683Z,15.95
2017-12-04T03:56:59.947Z,15.10
2017-12-04T03:59:28.978Z,11.73
2017-12-04T04:01:57.248Z,15.02
2017-12-04T04:04:25.511Z,16.77
2017-12-04T04:06:53.785Z,13.48
2017-12-04T04:09:22.057Z,15.30
2017-12-04T04:11:50.319Z,15.27
2017-12-04T04:14:19.346Z,16.95
2017-12-04T04:16:47.605Z,16.60
2017-12-04T04:19:15.875Z,6.80
2017-12-04T04:21:44.131Z,13.90
2017-12-04T04:24:13.169Z,15.10
2017-12-04T04:26:41.430Z,11.20
2017-12-04T04:29:09.691Z,11.63
2017-12-04T04:31:37.951Z,12.25
2017-12-04T04:34:06.983Z,14.63
2017-12-04T04:36:35.241Z,16.60
2017-12-04T04:39:03.514Z,15.40
2017-12-04T04:41:31.775Z,13.38
2017-12-04T04:44:00.798Z,10.00
2017-12-04T04:46:29.071Z,16.25
2017-12-04T04:48:57.337Z,17.20
2017-12-04T04:51:25.591Z,16.70
2017-12-04T04:53:54.618Z,17.65
2017-12-04T04:56:22.881Z,18.55
2017-12-04T04:58:51.141Z,18.45
2017-12-04T05:01:20.158Z,17.98
2017-12-04T05:03:48.414Z,9.80
2017-12-04T05:06:17.439Z,16.10
2017-12-04T05:08:45.702Z,11.10
2017-12-04T05:11:13.947Z,14.90
2017-12-04T05:13:42.975Z,13.70
2017-12-04T05:16:11.227Z,16.20
2017-12-04T05:18:40.256Z,14.90
2017-12-04T05:21:08.510Z,12.80
2017-12-04T05:23:36.774Z,12.02
2017-12-04T05:26:05.800Z,13.65
2017-12-04T05:28:34.054Z,13.55
2017-12-04T05:31:02.315Z,9.75
2017-12-04T05:33:31.342Z,7.37
2017-12-04T05:35:59.603Z,13.18
2017-12-04T05:38:27.865Z,12.05
2017-12-04T05:40:56.886Z,9.20
2017-12-04T05:43:25.145Z,11.90
2017-12-04T05:45:53.406Z,12.77
2017-12-04T05:48:22.429Z,13.70
2017-12-04T05:50:50.695Z,13.85
2017-12-04T05:53:18.961Z,9.63
2017-12-04T05:55:47.226Z,12.13
2017-12-04T05:58:16.255Z,12.23
2017-12-04T06:00:44.502Z,6.57
2017-12-04T06:03:12.762Z,7.90
2017-12-04T06:05:41.778Z,12.02
2017-12-04T06:08:10.046Z,12.95
2017-12-04T06:10:38.303Z,9.18
2017-12-04T06:13:07.331Z,9.80
2017-12-04T06:15:35.578Z,9.70
2017-12-04T06:18:04.606Z,11.00
2017-12-04T06:20:32.869Z,9.02
2017-12-04T06:23:01.139Z,9.82
2017-12-04T06:25:29.394Z,7.95
2017-12-04T06:27:58.400Z,8.77
2017-12-04T06:30:26.662Z,8.48
2017-12-04T06:32:55.681Z,9.43
2017-12-04T06:35:23.945Z,9.65
2017-12-04T06:37:52.199Z,8.18
2017-12-04T06:40:20.457Z,7.30
2017-12-04T06:42:48.718Z,8.00
2017-12-04T06:45:16.974Z,9.88
2017-12-04T06:47:45.233Z,9.73
2017-12-04T06:50:13.498Z,11.80
2017-12-04T06:52:42.518Z,10.88
2017-12-04T06:55:10.769Z,7.55
2017-12-04T06:57:39.032Z,12.85
2017-12-04T07:00:08.058Z,8.15
2017-12-04T07:02:36.306Z,8.18
2017-12-04T07:05:05.351Z,9.32
2017-12-04T07:07:33.604Z,9.00
2017-12-04T07:10:01.853Z,5.35
2017-12-04T07:12:30.885Z,10.85
2017-12-04T07:14:59.136Z,11.80
2017-12-04T07:17:27.390Z,5.37
2017-12-04T07:19:56.406Z,11.65
2017-12-04T07:22:24.668Z,8.15
2017-12-04T07:24:53.675Z,6.78
2017-12-04T07:27:21.943Z,10.02
2017-12-04T07:29:50.201Z,8.07
2017-12-04T07:32:19.225Z,7.72
2017-12-04T07:34:47.478Z,10.68
2017-12-04T07:37:16.498Z,9.50
2017-12-04T07:39:44.741Z,5.43
2017-12-04T07:42:13.791Z,9.05
2017-12-04T07:44:42.038Z,10.52
2017-12-04T07:47:10.290Z,10.15
2017-12-04T07:49:39.319Z,7.32
2017-12-04T07:52:07.573Z,10.57
2017-12-04T07:54:35.833Z,8.77
2017-12-04T07:57:04.851Z,5.40
2017-12-04T07:59:33.113Z,9.77
2017-12-04T08:02:01.365Z,8.67
2017-12-04T08:04:30.472Z,8.95
2017-12-04T08:06:59.484Z,8.82
2017-12-04T08:09:27.738Z,7.40
2017-12-04T08:11:56.755Z,6.90
2017-12-04T08:14:25.032Z,8.70
2017-12-04T08:16:53.274Z,8.32
2017-12-04T08:19:22.296Z,8.38
2017-12-04T08:21:50.557Z,8.77
2017-12-04T08:24:18.818Z,6.78
2017-12-04T08:26:47.839Z,7.30
2017-12-04T08:29:16.097Z,10.15
2017-12-04T08:31:45.109Z,6.30
2017-12-04T08:34:13.373Z,8.98
2017-12-04T08:36:41.618Z,8.70
2017-12-04T08:39:09.890Z,7.05
2017-12-04T08:41:38.138Z,6.40
2017-12-04T08:44:06.405Z,10.60
2017-12-04T08:46:34.659Z,8.68
2017-12-04T08:49:02.922Z,8.60
2017-12-04T08:51:31.185Z,4.85
2017-12-04T08:54:00.214Z,6.47
2017-12-04T08:56:28.502Z,9.17
2017-12-04T08:58:56.783Z,11.18
2017-12-04T09:01:25.066Z,12.00
2017-12-04T09:03:53.455Z,9.48
2017-12-04T09:06:21.788Z,10.30
2017-12-04T09:08:50.136Z,9.13
2017-12-04T09:11:18.437Z,7.93
2017-12-04T09:13:46.743Z,9.63
2017-12-04T09:16:15.066Z,8.80
2017-12-04T09:18:44.167Z,8.73
2017-12-04T09:21:13.241Z,7.57
2017-12-04T09:23:41.538Z,7.50
2017-12-04T09:26:10.622Z,8.82
2017-12-04T09:28:38.969Z,8.60
2017-12-04T09:31:07.302Z,8.10
2017-12-04T09:33:35.602Z,4.43
2017-12-04T09:36:03.922Z,4.25
2017-12-04T09:38:32.245Z,8.07
2017-12-04T09:41:00.558Z,8.23
2017-12-04T09:43:28.868Z,7.47
2017-12-04T09:45:57.938Z,6.55
2017-12-04T09:48:26.242Z,7.10
2017-12-04T09:50:55.318Z,5.03
2017-12-04T09:53:23.620Z,6.33
2017-12-04T09:55:52.704Z,5.93
2017-12-04T09:58:21.034Z,6.93
2017-12-04T10:00:49.370Z,6.70
2017-12-04T10:03:17.686Z,6.80
2017-12-04T10:05:45.988Z,6.07
2017-12-04T10:08:14.310Z,5.10
2017-12-04T10:10:42.617Z,5.97
2017-12-04T10:13:10.930Z,6.65
2017-12-04T10:15:39.265Z,6.03
2017-12-04T10:18:07.544Z,6.40
2017-12-04T10:20:35.900Z,7.05
2017-12-04T10:23:04.214Z,7.55
2017-12-04T10:25:32.530Z,6.00
2017-12-04T10:28:01.583Z,6.37
2017-12-04T10:30:29.868Z,6.17
2017-12-04T10:32:58.192Z,5.00
2017-12-04T10:35:27.264Z,4.53
2017-12-04T10:37:55.554Z,5.17
2017-12-04T10:40:24.643Z,5.97
2017-12-04T10:42:53.713Z,5.13
2017-12-04T10:45:22.007Z,3.53
2017-12-04T10:47:50.327Z,6.60
2017-12-04T10:50:18.643Z,5.60
2017-12-04T10:52:46.995Z,5.70
2017-12-04T10:55:15.280Z,5.87
2017-12-04T10:57:43.574Z,3.90
2017-12-04T11:00:11.902Z,5.37
2017-12-04T11:02:40.209Z,5.33
2017-12-04T11:05:08.497Z,4.77
2017-12-04T11:07:36.818Z,5.80
2017-12-04T11:10:05.905Z,6.00
2017-12-04T11:12:34.990Z,4.63
2017-12-04T11:15:03.274Z,5.17
2017-12-04T11:17:32.325Z,5.40
2017-12-04T11:20:00.624Z,4.37
2017-12-04T11:22:28.899Z,4.10
2017-12-04T11:24:57.216Z,5.00
2017-12-04T11:27:25.518Z,4.60
2017-12-04T11:29:53.793Z,3.93
2017-12-04T11:32:22.066Z,6.50
2017-12-04T11:34:50.352Z,4.63
2017-12-04T11:37:18.628Z,5.63
2017-12-04T11:39:46.916Z,5.70
2017-12-04T11:42:15.199Z,4.90
2017-12-04T11:44:43.472Z,5.07
2017-12-04T11:47:11.758Z,4.00
2017-12-04T11:49:40.036Z,5.80
2017-12-04T11:52:08.316Z,5.00
2017-12-04T11:54:36.645Z,4.93
2017-12-04T11:57:04.950Z,5.90
2017-12-04T11:59:33.258Z,5.07
2017-12-04T12:02:01.573Z,3.50
2017-12-04T12:04:29.885Z,5.00
2017-12-04T12:06:58.271Z,3.80
2017-12-04T12:09:26.551Z,6.00
2017-12-04T12:11:54.878Z,4.40
2017-12-04T12:14:23.190Z,6.00
2017-12-04T12:16:51.521Z,4.50
2017-12-04T12:19:19.828Z,5.70
2017-12-04T12:21:48.120Z,5.20
2017-12-04T12:24:16.427Z,5.30
2017-12-04T12:26:44.704Z,5.80
2017-12-04T12:29:12.985Z,4.67
2017-12-04T12:31:42.076Z,5.47
2017-12-04T12:34:11.150Z,5.50
2017-12-04T12:36:39.420Z,5.47
2017-12-04T12:39:07.683Z,5.30
2017-12-04T12:41:35.968Z,5.00
2017-12-04T12:44:04.244Z,4.70
2017-12-04T12:46:32.539Z,5.70
2017-12-04T12:49:00.824Z,3.37
2017-12-04T12:51:29.884Z,3.17
2017-12-04T12:53:58.195Z,4.40
2017-12-04T12:56:26.500Z,5.93
2017-12-04T12:58:54.822Z,3.97
2017-12-04T13:01:23.136Z,4.03
2017-12-04T13:03:52.201Z,5.40
2017-12-04T13:06:20.515Z,5.40
2017-12-04T13:08:48.841Z,4.70
2017-12-04T13:11:17.158Z,5.00
2017-12-04T13:13:46.195Z,5.13
2017-12-04T13:16:14.529Z,5.67
2017-12-04T13:18:43.607Z,4.40
2017-12-04T13:21:11.918Z,6.17
2017-12-04T13:23:40.267Z,5.73
2017-12-04T13:26:09.366Z,5.27
2017-12-04T13:28:38.454Z,6.10
2017-12-04T13:31:06.804Z,6.47
2017-12-04T13:33:52.894Z,5.93
2017-12-04T13:39:22.198Z,5.47
2017-12-04T13:41:50.449Z,4.97
2017-12-04T13:44:18.690Z,5.90
2017-12-04T13:46:46.948Z,5.47
2017-12-04T13:49:15.203Z,6.30
2017-12-04T13:51:43.475Z,7.10
2017-12-04T13:54:11.750Z,5.10
2017-12-04T13:56:40.756Z,5.40
2017-12-04T13:59:09.827Z,4.80
2017-12-04T14:01:38.104Z,4.20
2017-12-04T14:04:06.378Z,6.50
2017-12-04T14:06:34.664Z,6.47
2017-12-04T14:09:02.958Z,4.57
2017-12-04T14:11:31.229Z,6.10
2017-12-04T14:13:59.520Z,6.67
2017-12-04T14:16:27.792Z,4.07
2017-12-04T14:18:56.068Z,8.27
2017-12-04T14:21:24.344Z,5.63
2017-12-04T14:23:52.621Z,4.17
2017-12-04T14:26:20.892Z,6.97
2017-12-04T14:28:49.180Z,7.17
2017-12-04T14:31:17.472Z,4.73
2017-12-04T14:33:45.792Z,7.37
2017-12-04T14:36:14.055Z,7.10
2017-12-04T14:38:42.350Z,8.25
2017-12-04T14:41:10.612Z,5.63
2017-12-04T14:43:38.876Z,6.00
2017-12-04T14:46:07.146Z,6.85
2017-12-04T14:48:36.221Z,7.75
2017-12-04T14:51:04.492Z,8.97
2017-12-04T14:53:32.797Z,9.10
2017-12-04T14:56:01.846Z,7.70
2017-12-04T14:58:30.112Z,9.83
2017-12-04T15:00:58.387Z,7.30
2017-12-04T15:03:26.650Z,7.73
2017-12-04T15:05:54.970Z,7.90
2017-12-04T15:08:23.245Z,6.87
2017-12-04T15:10:51.535Z,8.10
2017-12-04T15:13:20.584Z,7.80
2017-12-04T15:15:48.873Z,8.77
2017-12-04T15:18:17.135Z,8.20
2017-12-04T15:20:45.425Z,8.13
2017-12-04T15:23:13.710Z,7.67
2017-12-04T15:25:42.029Z,8.93
2017-12-04T15:28:11.074Z,8.37
2017-12-04T15:30:39.362Z,9.70
2017-12-04T15:33:07.645Z,9.67
2017-12-04T15:35:35.936Z,8.67
2017-12-04T15:38:04.975Z,9.00
2017-12-04T15:40:33.248Z,10.23
2017-12-04T15:43:01.551Z,12.50
2017-12-04T15:45:29.833Z,10.47
2017-12-04T15:47:58.145Z,6.27
2017-12-04T15:50:27.218Z,8.77
2017-12-04T15:52:56.331Z,11.47
2017-12-04T15:55:25.392Z,9.17
2017-12-04T15:57:53.694Z,10.80
2017-12-04T16:00:22.754Z,9.73
2017-12-04T16:02:51.841Z,10.90
2017-12-04T16:05:20.125Z,9.30
2017-12-04T16:07:48.449Z,11.53
2017-12-04T16:10:17.512Z,10.20
2017-12-04T16:12:45.827Z,11.10
2017-12-04T16:15:14.129Z,7.30
2017-12-04T16:17:43.227Z,10.00
2017-12-04T16:20:11.533Z,11.00
2017-12-04T16:22:39.870Z,10.50
2017-12-04T16:25:08.171Z,11.23
2017-12-04T16:27:36.502Z,10.57
2017-12-04T16:30:04.819Z,11.13
2017-12-04T16:32:33.150Z,11.10
2017-12-04T16:35:02.245Z,7.37
2017-12-04T16:37:31.325Z,10.43
2017-12-04T16:39:59.623Z,10.83
2017-12-04T16:42:27.948Z,11.67
2017-12-04T16:44:56.265Z,11.50
2017-12-04T16:47:24.574Z,12.43
2017-12-04T16:49:52.887Z,10.50
2017-12-04T16:52:21.254Z,12.10
2017-12-04T16:54:49.555Z,8.43
2017-12-04T16:57:17.874Z,7.33
2017-12-04T16:59:46.219Z,10.50
2017-12-04T17:02:14.534Z,7.67
2017-12-04T17:04:42.858Z,11.83
2017-12-04T17:07:11.173Z,11.47
2017-12-04T17:09:39.501Z,12.00
2017-12-04T17:12:07.800Z,12.10
2017-12-04T17:14:36.928Z,10.03
2017-12-04T17:17:05.262Z,7.57
2017-12-04T17:19:33.581Z,9.00
2017-12-04T17:22:01.891Z,10.47
2017-12-04T17:24:30.235Z,10.47
2017-12-04T17:26:58.548Z,8.10
2017-12-04T17:29:26.878Z,6.17
2017-12-04T17:31:55.185Z,11.17
2017-12-04T17:34:23.522Z,12.03
2017-12-04T17:36:51.830Z,10.80
2017-12-04T17:39:20.101Z,10.10
2017-12-04T17:41:48.383Z,8.53
2017-12-04T17:44:16.686Z,9.70
2017-12-04T17:46:44.984Z,11.23
2017-12-04T17:49:13.281Z,12.43
2017-12-04T17:51:42.317Z,12.73
2017-12-04T17:54:10.661Z,7.23
2017-12-04T17:56:38.994Z,11.63
2017-12-04T17:59:07.317Z,10.47
2017-12-04T18:01:35.642Z,8.00
2017-12-04T18:04:03.953Z,11.50
2017-12-04T18:06:32.273Z,11.53
2017-12-04T18:09:00.587Z,16.60
2017-12-04T18:11:28.907Z,12.80
2017-12-04T18:13:57.207Z,15.90
2017-12-04T18:16:25.529Z,16.40
2017-12-04T18:18:53.832Z,16.50
2017-12-04T18:21:22.162Z,15.27
2017-12-04T18:23:50.470Z,13.00
2017-12-04T18:26:19.555Z,14.97
2017-12-04T18:28:47.855Z,13.57
2017-12-04T18:31:16.946Z,14.07
2017-12-04T18:33:46.016Z,12.43
2017-12-04T18:36:14.351Z,15.57
2017-12-04T18:38:42.670Z,13.90
2017-12-04T18:41:10.972Z,7.17
2017-12-04T18:43:40.054Z,15.03
2017-12-04T18:46:09.104Z,13.90
2017-12-04T18:48:37.432Z,14.00
2017-12-04T18:51:05.734Z,17.27
2017-12-04T18:53:34.063Z,12.47
2017-12-04T18:56:02.376Z,12.87
2017-12-04T18:58:30.684Z,17.47
2017-12-04T19:00:58.979Z,15.80
2017-12-04T19:03:27.288Z,11.37
2017-12-04T19:05:55.610Z,15.67
2017-12-04T19:08:23.932Z,15.73
2017-12-04T19:10:52.250Z,11.90
2017-12-04T19:13:20.586Z,15.00
2017-12-04T19:15:48.885Z,15.17
2017-12-04T19:18:17.196Z,13.87
2017-12-04T19:20:45.511Z,15.20
2017-12-04T19:23:13.808Z,17.33
2017-12-04T19:25:42.128Z,18.13
2017-12-04T19:28:10.425Z,15.93
2017-12-04T19:30:38.720Z,12.27
2017-12-04T19:33:07.809Z,17.40
2017-12-04T19:35:36.134Z,18.30
2017-12-04T19:38:04.438Z,17.33
2017-12-04T19:40:32.780Z,13.47
2017-12-04T19:43:01.111Z,10.77
2017-12-04T19:45:29.437Z,16.57
2017-12-04T19:47:57.763Z,16.50
2017-12-04T19:50:26.081Z,16.77
2017-12-04T19:52:54.402Z,16.30
2017-12-04T19:55:22.725Z,17.13
2017-12-04T19:57:51.037Z,14.23
2017-12-04T20:00:21.029Z,17.93
2017-12-04T20:02:49.360Z,19.43
2017-12-04T20:05:17.681Z,19.00
2017-12-04T20:07:46.002Z,17.50
2017-12-04T20:10:14.366Z,19.50
2017-12-04T20:12:42.714Z,18.50
2017-12-04T20:15:11.024Z,16.47
2017-12-04T20:17:39.330Z,10.17
2017-12-04T20:20:07.641Z,12.63
2017-12-04T20:22:35.995Z,17.93
2017-12-04T20:25:05.086Z,18.02
2017-12-04T20:27:34.201Z,18.83
2017-12-04T20:30:03.287Z,15.67
2017-12-04T20:32:32.372Z,15.20
2017-12-04T20:35:00.707Z,17.27
2017-12-04T20:37:29.034Z,13.47
2017-12-04T20:39:58.119Z,13.70
2017-12-04T20:42:26.378Z,16.30
2017-12-04T20:44:54.797Z,16.60
2017-12-04T20:47:23.906Z,15.20
2017-12-04T20:49:52.241Z,17.80
2017-12-04T20:52:21.522Z,17.20
2017-12-04T21:09:01.011Z,13.82
2017-12-04T21:11:47.304Z,15.20
2017-12-04T21:14:33.483Z,17.60
2017-12-04T21:17:20.345Z,15.07
2017-12-04T21:20:03.758Z,11.13
2017-12-04T21:22:32.109Z,14.07
2017-12-04T21:25:02.272Z,14.90
2017-12-04T21:27:40.309Z,16.37
2017-12-04T21:30:09.458Z,15.27
2017-12-04T21:32:37.765Z,14.07
2017-12-04T21:35:06.137Z,16.20
2017-12-04T21:37:34.398Z,14.80
2017-12-04T21:40:02.660Z,10.60
2017-12-04T21:42:30.938Z,11.13
2017-12-04T21:45:00.005Z,12.83
2017-12-04T21:47:29.087Z,14.40
2017-12-04T21:49:57.446Z,15.33
2017-12-04T21:52:25.770Z,16.13
2017-12-04T21:54:54.090Z,12.53
2017-12-04T21:57:22.394Z,15.37
2017-12-04T21:59:50.709Z,15.13
2017-12-04T22:02:19.002Z,13.73
2017-12-04T22:04:47.304Z,14.40
2017-12-04T22:07:15.674Z,14.53
2017-12-04T22:09:44.012Z,14.47
2017-12-04T22:12:12.346Z,8.07
2017-12-04T22:14:40.665Z,15.17
2017-12-04T22:17:09.030Z,14.13
2017-12-04T22:19:38.346Z,17.07
2017-12-04T22:22:07.745Z,16.90
2017-12-04T22:24:36.100Z,16.00
2017-12-04T22:27:05.199Z,12.67
2017-12-04T22:29:34.285Z,16.10
2017-12-04T22:32:03.390Z,19.10
2017-12-04T22:34:31.734Z,16.10
2017-12-04T22:37:00.107Z,17.87
2017-12-04T22:39:28.434Z,17.58
2017-12-04T22:41:56.809Z,15.80
2017-12-04T22:44:25.169Z,17.50
2017-12-04T22:46:54.260Z,13.87
2017-12-04T22:49:22.658Z,15.10
2017-12-04T22:51:51.767Z,16.83
2017-12-04T22:54:20.103Z,16.70
2017-12-04T22:56:49.200Z,16.43
2017-12-04T22:59:17.562Z,13.27
2017-12-04T23:01:45.893Z,16.20
2017-12-04T23:04:14.226Z,10.82
2017-12-04T23:06:42.606Z,10.20
2017-12-04T23:09:10.942Z,22.10
2017-12-04T23:11:39.286Z,21.27
2017-12-04T23:14:08.410Z,12.13
2017-12-04T23:16:36.818Z,21.47
2017-12-04T23:19:05.202Z,19.93
2017-12-04T23:21:33.605Z,24.60
2017-12-04T23:24:01.888Z,16.87
2017-12-04T23:26:30.987Z,19.23
2017-12-04T23:28:59.332Z,17.50
2017-12-04T23:31:27.697Z,17.73
2017-12-04T23:33:56.028Z,18.53
2017-12-04T23:36:24.447Z,11.70
2017-12-04T23:38:52.857Z,19.00
2017-12-04T23:41:21.214Z,19.33
2017-12-04T23:43:50.284Z,20.37
2017-12-04T23:46:19.456Z,21.67
2017-12-04T23:48:47.783Z,21.37
2017-12-04T23:51:16.128Z,21.80
2017-12-04T23:53:44.486Z,19.80
2017-12-04T23:56:13.564Z,15.30
2017-12-04T23:58:41.941Z,16.17
